createdAt,value
2023-01-13T00:00:21.590Z,51.179272
2023-01-13T00:01:21.561Z,51.179272
2023-01-13T00:02:21.565Z,51.179264
2023-01-13T00:03:21.521Z,51.179268
2023-01-13T00:04:21.528Z,51.179268
2023-01-13T00:05:21.506Z,51.179298
2023-01-13T00:06:21.512Z,51.179256
2023-01-13T00:07:21.487Z,51.179256
2023-01-13T00:08:21.486Z,51.179241
2023-01-13T00:09:21.476Z,51.179260
2023-01-13T00:10:21.470Z,51.179245
2023-01-13T00:11:21.454Z,51.179214
2023-01-13T00:12:21.424Z,51.179272
2023-01-13T00:13:21.426Z,51.179264
2023-01-13T00:14:21.412Z,51.179295
2023-01-13T00:15:21.408Z,51.179272
2023-01-13T00:16:21.517Z,51.179230
2023-01-13T00:17:21.382Z,51.179249
2023-01-13T00:18:21.365Z,51.179260
2023-01-13T00:19:21.361Z,51.179317
2023-01-13T00:20:21.340Z,51.179283
2023-01-13T00:21:21.347Z,51.179241
2023-01-13T00:22:21.343Z,51.179237
2023-01-13T00:23:21.328Z,51.179245
2023-01-13T00:24:21.307Z,51.179256
2023-01-13T00:25:21.277Z,51.179245
2023-01-13T00:26:21.274Z,51.179272
2023-01-13T00:27:21.272Z,51.179279
2023-01-13T00:28:21.254Z,51.179279
2023-01-13T00:29:22.218Z,51.179268
2023-01-13T00:30:21.300Z,51.179279
2023-01-13T00:31:21.330Z,51.179226
2023-01-13T00:32:21.234Z,51.179241
2023-01-13T00:33:21.191Z,51.179203
2023-01-13T00:34:21.176Z,51.179173
2023-01-13T00:35:21.157Z,51.179199
2023-01-13T00:36:21.159Z,51.179249
2023-01-13T00:37:21.155Z,51.179253
2023-01-13T00:38:21.136Z,51.179283
2023-01-13T00:39:21.144Z,51.179260
2023-01-13T00:40:21.128Z,51.179237
2023-01-13T00:41:21.084Z,51.179214
2023-01-13T00:42:21.093Z,51.179249
2023-01-13T00:43:21.078Z,51.179249
2023-01-13T00:44:21.065Z,51.179218
2023-01-13T00:45:21.047Z,51.179214
2023-01-13T00:46:22.127Z,51.179279
2023-01-13T00:47:21.028Z,51.179211
2023-01-13T00:48:21.037Z,51.179214
2023-01-13T00:49:21.037Z,51.179241
2023-01-13T00:50:21.002Z,51.179230
2023-01-13T00:51:20.979Z,51.179253
2023-01-13T00:52:21.009Z,51.179234
2023-01-13T00:53:20.974Z,51.179245
2023-01-13T00:54:20.948Z,51.179256
2023-01-13T00:55:20.929Z,51.179241
2023-01-13T00:56:34.192Z,51.179249
2023-01-13T00:57:22.974Z,51.179203
2023-01-13T00:58:20.919Z,51.179192
2023-01-13T00:59:20.881Z,51.179195
2023-01-13T01:00:20.906Z,51.179195
2023-01-13T01:01:21.053Z,51.179253
2023-01-13T01:02:20.942Z,51.179260
2023-01-13T01:03:20.869Z,51.179264
2023-01-13T01:04:20.844Z,51.179283
2023-01-13T01:05:20.845Z,51.179268
2023-01-13T01:06:20.810Z,51.179279
2023-01-13T01:07:20.807Z,51.179260
2023-01-13T01:08:20.813Z,51.179249
2023-01-13T01:09:20.775Z,51.179253
2023-01-13T01:10:20.762Z,51.179249
2023-01-13T01:11:20.797Z,51.179234
2023-01-13T01:12:20.765Z,51.179226
2023-01-13T01:13:20.774Z,51.179218
2023-01-13T01:14:20.756Z,51.179234
2023-01-13T01:15:20.731Z,51.179234
2023-01-13T01:16:20.697Z,51.179234
2023-01-13T01:17:20.698Z,51.179230
2023-01-13T01:18:20.661Z,51.179230
2023-01-13T01:19:20.675Z,51.179249
2023-01-13T01:20:20.665Z,51.179268
2023-01-13T01:21:20.641Z,51.179214
2023-01-13T01:22:20.627Z,51.179214
2023-01-13T01:23:20.637Z,51.179245
2023-01-13T01:24:20.614Z,51.179249
2023-01-13T01:25:20.584Z,51.179245
2023-01-13T01:26:20.591Z,51.179199
2023-01-13T01:27:20.552Z,51.179249
2023-01-13T01:28:20.641Z,51.179287
2023-01-13T01:29:20.548Z,51.179302
2023-01-13T01:30:20.618Z,51.179279
2023-01-13T01:31:20.512Z,51.179260
2023-01-13T01:32:20.528Z,51.179279
2023-01-13T01:33:20.526Z,51.179302
2023-01-13T01:34:20.520Z,51.179295
2023-01-13T01:35:20.508Z,51.179314
2023-01-13T01:36:20.526Z,51.179287
2023-01-13T01:37:20.487Z,51.179253
2023-01-13T01:38:20.437Z,51.179226
2023-01-13T01:39:20.443Z,51.179230
2023-01-13T01:40:20.418Z,51.179192
2023-01-13T01:41:20.439Z,51.179199
2023-01-13T01:42:20.408Z,51.179260
2023-01-13T01:43:20.376Z,51.179291
2023-01-13T01:44:20.384Z,51.179283
2023-01-13T01:45:20.382Z,51.179237
2023-01-13T01:46:20.406Z,51.179253
2023-01-13T01:47:20.342Z,51.179241
2023-01-13T01:48:20.337Z,51.179260
2023-01-13T01:49:20.362Z,51.179176
2023-01-13T01:50:20.301Z,51.179226
2023-01-13T01:51:20.305Z,51.179207
2023-01-13T01:52:20.295Z,51.179192
2023-01-13T01:53:20.261Z,51.179253
2023-01-13T01:54:20.279Z,51.179276
2023-01-13T01:55:20.287Z,51.179283
2023-01-13T01:56:20.283Z,51.179199
2023-01-13T01:57:20.270Z,51.179218
2023-01-13T01:58:20.222Z,51.179173
2023-01-13T01:59:20.390Z,51.179218
2023-01-13T02:00:20.187Z,51.179260
2023-01-13T02:01:20.288Z,51.179237
2023-01-13T02:02:20.217Z,51.179249
2023-01-13T02:03:20.163Z,51.179329
2023-01-13T02:04:20.160Z,51.179329
2023-01-13T02:05:20.180Z,51.179268
2023-01-13T02:06:20.130Z,51.179226
2023-01-13T02:07:20.118Z,51.179127
2023-01-13T02:08:20.140Z,51.179031
2023-01-13T02:09:20.104Z,51.179008
2023-01-13T02:10:20.091Z,51.179222
2023-01-13T02:11:20.052Z,51.179337
2023-01-13T02:12:20.067Z,51.179306
2023-01-13T02:13:20.050Z,51.179321
2023-01-13T02:14:20.034Z,51.179371
2023-01-13T02:15:20.041Z,51.179474
2023-01-13T02:16:20.081Z,51.179348
2023-01-13T02:17:20.024Z,51.179249
2023-01-13T02:18:20.024Z,51.179314
2023-01-13T02:19:20.012Z,51.179306
2023-01-13T02:20:19.964Z,51.179306
2023-01-13T02:21:19.962Z,51.179348
2023-01-13T02:22:19.945Z,51.179386
2023-01-13T02:23:19.917Z,51.179424
2023-01-13T02:24:19.931Z,51.179256
2023-01-13T02:25:19.931Z,51.179226
2023-01-13T02:26:19.917Z,51.179226
2023-01-13T02:27:19.896Z,51.179260
2023-01-13T02:28:19.892Z,51.179211
2023-01-13T02:29:19.888Z,51.179256
2023-01-13T02:30:19.893Z,51.179268
2023-01-13T02:31:20.837Z,51.179279
2023-01-13T02:32:19.854Z,51.179268
2023-01-13T02:33:19.835Z,51.179260
2023-01-13T02:34:19.812Z,51.179268
2023-01-13T02:35:19.794Z,51.179245
2023-01-13T02:36:51.909Z,51.179211
2023-01-13T02:37:19.786Z,51.179260
2023-01-13T02:38:19.765Z,51.179245
2023-01-13T02:39:19.768Z,51.179234
2023-01-13T02:40:19.755Z,51.179218
2023-01-13T02:41:19.755Z,51.179214
2023-01-13T02:42:19.729Z,51.179207
2023-01-13T02:43:19.704Z,51.179237
2023-01-13T02:44:19.721Z,51.179207
2023-01-13T02:45:19.692Z,51.179184
2023-01-13T02:46:19.676Z,51.179214
2023-01-13T02:47:19.701Z,51.179184
2023-01-13T02:48:19.652Z,51.179222
2023-01-13T02:49:19.642Z,51.179245
2023-01-13T02:50:20.631Z,51.179234
2023-01-13T02:51:19.646Z,51.179180
2023-01-13T02:52:19.610Z,51.179211
2023-01-13T02:53:19.607Z,51.179192
2023-01-13T02:54:19.604Z,51.179169
2023-01-13T02:55:19.574Z,51.179161
2023-01-13T02:56:19.562Z,51.179184
2023-01-13T02:57:19.572Z,51.179230
2023-01-13T02:58:19.546Z,51.179218
2023-01-13T02:59:19.536Z,51.179234
2023-01-13T03:00:19.572Z,51.179203
2023-01-13T03:01:19.666Z,51.179195
2023-01-13T03:02:19.689Z,51.179184
2023-01-13T03:03:19.555Z,51.179188
2023-01-13T03:04:19.502Z,51.179188
2023-01-13T03:05:19.499Z,51.179184
2023-01-13T03:06:19.499Z,51.179131
2023-01-13T03:07:19.473Z,51.179180
2023-01-13T03:08:19.474Z,51.179199
2023-01-13T03:09:19.467Z,51.179211
2023-01-13T03:10:19.432Z,51.179249
2023-01-13T03:11:19.427Z,51.179291
2023-01-13T03:12:19.421Z,51.179306
2023-01-13T03:13:19.419Z,51.179268
2023-01-13T03:14:19.385Z,51.179230
2023-01-13T03:15:19.395Z,51.179245
2023-01-13T03:16:19.432Z,51.179298
2023-01-13T03:17:19.351Z,51.179302
2023-01-13T03:18:19.362Z,51.179264
2023-01-13T03:19:19.338Z,51.179268
2023-01-13T03:20:19.328Z,51.179253
2023-01-13T03:21:19.337Z,51.179234
2023-01-13T03:22:19.306Z,51.179230
2023-01-13T03:23:19.343Z,51.179230
2023-01-13T03:24:19.297Z,51.179249
2023-01-13T03:25:19.279Z,51.179199
2023-01-13T03:26:19.258Z,51.179188
2023-01-13T03:27:19.282Z,51.179161
2023-01-13T03:28:19.253Z,51.179234
2023-01-13T03:29:19.238Z,51.179192
2023-01-13T03:30:19.214Z,51.179230
2023-01-13T03:31:19.211Z,51.179214
2023-01-13T03:32:19.203Z,51.179214
2023-01-13T03:33:19.198Z,51.179199
2023-01-13T03:34:19.186Z,51.179203
2023-01-13T03:35:19.144Z,51.179272
2023-01-13T03:36:19.145Z,51.179253
2023-01-13T03:37:19.142Z,51.179272
2023-01-13T03:38:19.140Z,51.179249
2023-01-13T03:39:19.123Z,51.179230
2023-01-13T03:40:19.113Z,51.179192
2023-01-13T03:41:19.089Z,51.179188
2023-01-13T03:42:19.076Z,51.179157
2023-01-13T03:43:19.076Z,51.179173
2023-01-13T03:44:19.070Z,51.179184
2023-01-13T03:45:19.064Z,51.179199
2023-01-13T03:46:19.075Z,51.179192
2023-01-13T03:47:19.033Z,51.179234
2023-01-13T03:48:19.044Z,51.179203
2023-01-13T03:49:19.010Z,51.179230
2023-01-13T03:50:18.989Z,51.179192
2023-01-13T03:51:18.989Z,51.179203
2023-01-13T03:52:18.968Z,51.179192
2023-01-13T03:53:18.955Z,51.179199
2023-01-13T03:54:18.978Z,51.179199
2023-01-13T03:55:18.967Z,51.179199
2023-01-13T03:56:18.923Z,51.179203
2023-01-13T03:57:18.924Z,51.179211
2023-01-13T03:58:18.945Z,51.179211
2023-01-13T03:59:18.921Z,51.179218
2023-01-13T04:00:18.903Z,51.179226
2023-01-13T04:01:18.986Z,51.179264
2023-01-13T04:02:18.918Z,51.179276
2023-01-13T04:03:18.838Z,51.179260
2023-01-13T04:04:18.843Z,51.179234
2023-01-13T04:05:18.824Z,51.179234
2023-01-13T04:06:18.819Z,51.179234
2023-01-13T04:07:18.797Z,51.179256
2023-01-13T04:08:18.812Z,51.179298
2023-01-13T04:09:18.785Z,51.179310
2023-01-13T04:10:18.840Z,51.179298
2023-01-13T04:11:18.765Z,51.179314
2023-01-13T04:12:18.750Z,51.179314
2023-01-13T04:13:18.736Z,51.179298
2023-01-13T04:14:18.713Z,51.179276
2023-01-13T04:15:18.695Z,51.179276
2023-01-13T04:16:18.681Z,51.179260
2023-01-13T04:17:18.687Z,51.179237
2023-01-13T04:18:18.680Z,51.179237
2023-01-13T04:19:19.660Z,51.179272
2023-01-13T04:20:18.650Z,51.179279
2023-01-13T04:21:18.640Z,51.179302
2023-01-13T04:22:18.628Z,51.179264
2023-01-13T04:23:18.619Z,51.179260
2023-01-13T04:24:18.607Z,51.179291
2023-01-13T04:25:18.591Z,51.179287
2023-01-13T04:26:18.589Z,51.179279
2023-01-13T04:27:18.570Z,51.179268
2023-01-13T04:28:18.555Z,51.179306
2023-01-13T04:29:18.553Z,51.179291
2023-01-13T04:30:18.537Z,51.179272
2023-01-13T04:31:18.593Z,51.179279
2023-01-13T04:32:18.513Z,51.179264
2023-01-13T04:33:18.528Z,51.179256
2023-01-13T04:34:18.501Z,51.179310
2023-01-13T04:35:18.486Z,51.179276
2023-01-13T04:36:18.482Z,51.179283
2023-01-13T04:37:18.470Z,51.179298
2023-01-13T04:38:18.452Z,51.179321
2023-01-13T04:39:18.438Z,51.179287
2023-01-13T04:40:18.428Z,51.179268
2023-01-13T04:41:18.436Z,51.179276
2023-01-13T04:42:18.423Z,51.179253
2023-01-13T04:43:18.389Z,51.179256
2023-01-13T04:44:18.388Z,51.179226
2023-01-13T04:45:18.394Z,51.179230
2023-01-13T04:46:18.385Z,51.179241
2023-01-13T04:47:18.370Z,51.179264
2023-01-13T04:48:18.344Z,51.179237
2023-01-13T04:49:18.328Z,51.179276
2023-01-13T04:50:18.334Z,51.179276
2023-01-13T04:51:18.335Z,51.179279
2023-01-13T04:52:18.308Z,51.179264
2023-01-13T04:53:18.301Z,51.179245
2023-01-13T04:54:18.285Z,51.179207
2023-01-13T04:55:18.262Z,51.179214
2023-01-13T04:56:18.252Z,51.179199
2023-01-13T04:57:18.244Z,51.179214
2023-01-13T04:58:18.231Z,51.179195
2023-01-13T04:59:18.239Z,51.179214
2023-01-13T05:00:18.210Z,51.179211
2023-01-13T05:01:18.355Z,51.179226
2023-01-13T05:02:18.233Z,51.179264
2023-01-13T05:03:18.179Z,51.179314
2023-01-13T05:04:18.183Z,51.179306
2023-01-13T05:05:18.175Z,51.179272
2023-01-13T05:06:18.158Z,51.179295
2023-01-13T05:07:18.144Z,51.179241
2023-01-13T05:08:18.135Z,51.179253
2023-01-13T05:09:18.125Z,51.179276
2023-01-13T05:10:18.111Z,51.179310
2023-01-13T05:11:18.093Z,51.179314
2023-01-13T05:12:18.078Z,51.179287
2023-01-13T05:13:18.092Z,51.179241
2023-01-13T05:14:18.071Z,51.179249
2023-01-13T05:15:18.085Z,51.179279
2023-01-13T05:16:18.076Z,51.179283
2023-01-13T05:17:18.025Z,51.179234
2023-01-13T05:18:18.034Z,51.179214
2023-01-13T05:19:18.025Z,51.179234
2023-01-13T05:20:17.995Z,51.179260
2023-01-13T05:21:17.999Z,51.179241
2023-01-13T05:22:17.978Z,51.179253
2023-01-13T05:23:17.959Z,51.179264
2023-01-13T05:24:17.967Z,51.179276
2023-01-13T05:25:17.964Z,51.179279
2023-01-13T05:26:17.928Z,51.179260
2023-01-13T05:27:17.932Z,51.179276
2023-01-13T05:28:17.909Z,51.179306
2023-01-13T05:29:17.906Z,51.179295
2023-01-13T05:30:17.890Z,51.179264
2023-01-13T05:31:17.987Z,51.179234
2023-01-13T05:32:17.869Z,51.179230
2023-01-13T05:33:17.849Z,51.179264
2023-01-13T05:34:17.864Z,51.179306
2023-01-13T05:35:17.853Z,51.179279
2023-01-13T05:36:17.838Z,51.179276
2023-01-13T05:37:17.927Z,51.179245
2023-01-13T05:38:17.821Z,51.179237
2023-01-13T05:39:17.816Z,51.179256
2023-01-13T05:40:17.773Z,51.179283
2023-01-13T05:41:17.783Z,51.179264
2023-01-13T05:42:17.753Z,51.179249
2023-01-13T05:43:17.728Z,51.179249
2023-01-13T05:44:17.753Z,51.179245
2023-01-13T05:45:17.749Z,51.179226
2023-01-13T05:46:17.951Z,51.179218
2023-01-13T05:47:17.726Z,51.179230
2023-01-13T05:48:17.686Z,51.179241
2023-01-13T05:49:17.698Z,51.179245
2023-01-13T05:50:17.699Z,51.179253
2023-01-13T05:51:17.681Z,51.179268
2023-01-13T05:52:17.666Z,51.179264
2023-01-13T05:53:17.636Z,51.179256
2023-01-13T05:54:17.630Z,51.179230
2023-01-13T05:55:17.643Z,51.179260
2023-01-13T05:56:17.635Z,51.179264
2023-01-13T05:57:17.584Z,51.179295
2023-01-13T05:58:17.574Z,51.179279
2023-01-13T05:59:17.594Z,51.179264
2023-01-13T06:00:17.570Z,51.179256
2023-01-13T06:01:17.598Z,51.179237
2023-01-13T06:02:17.654Z,51.179264
2023-01-13T06:03:17.587Z,51.179268
2023-01-13T06:04:17.640Z,51.179260
2023-01-13T06:05:17.524Z,51.179272
2023-01-13T06:06:17.507Z,51.179279
2023-01-13T06:07:17.475Z,51.179256
2023-01-13T06:08:17.476Z,51.179245
2023-01-13T06:09:17.516Z,51.179256
2023-01-13T06:10:17.464Z,51.179260
2023-01-13T06:11:17.463Z,51.179268
2023-01-13T06:12:17.452Z,51.179256
2023-01-13T06:13:17.403Z,51.179253
2023-01-13T06:14:17.418Z,51.179245
2023-01-13T06:15:17.426Z,51.179222
2023-01-13T06:16:17.465Z,51.179211
2023-01-13T06:17:17.406Z,51.179230
2023-01-13T06:18:17.428Z,51.179234
2023-01-13T06:19:17.368Z,51.179241
2023-01-13T06:20:17.355Z,51.179279
2023-01-13T06:21:17.351Z,51.179306
2023-01-13T06:22:17.344Z,51.179276
2023-01-13T06:23:17.326Z,51.179272
2023-01-13T06:24:17.320Z,51.179256
2023-01-13T06:25:17.357Z,51.179241
2023-01-13T06:26:17.336Z,51.179276
2023-01-13T06:27:17.257Z,51.179295
2023-01-13T06:28:17.282Z,51.179272
2023-01-13T06:29:17.300Z,51.179256
2023-01-13T06:30:17.261Z,51.179264
2023-01-13T06:31:17.283Z,51.179249
2023-01-13T06:32:17.228Z,51.179237
2023-01-13T06:33:17.221Z,51.179272
2023-01-13T06:34:17.189Z,51.179283
2023-01-13T06:35:17.214Z,51.179283
2023-01-13T06:36:17.187Z,51.179237
2023-01-13T06:37:17.165Z,51.179199
2023-01-13T06:38:17.164Z,51.179192
2023-01-13T06:39:17.164Z,51.179203
2023-01-13T06:40:17.139Z,51.179207
2023-01-13T06:41:17.129Z,51.179188
2023-01-13T06:42:17.152Z,51.179218
2023-01-13T06:43:17.568Z,51.179253
2023-01-13T06:44:17.095Z,51.179188
2023-01-13T06:45:17.119Z,51.179230
2023-01-13T06:46:17.108Z,51.179237
2023-01-13T06:47:17.072Z,51.179230
2023-01-13T06:48:17.058Z,51.179249
2023-01-13T06:49:17.198Z,51.179253
2023-01-13T06:50:17.010Z,51.179207
2023-01-13T06:51:18.042Z,51.179188
2023-01-13T06:52:17.027Z,51.179184
2023-01-13T06:53:16.991Z,51.179218
2023-01-13T06:54:16.997Z,51.179241
2023-01-13T06:55:17.030Z,51.179226
2023-01-13T06:56:16.976Z,51.179222
2023-01-13T06:57:16.941Z,51.179222
2023-01-13T06:58:16.997Z,51.179226
2023-01-13T06:59:16.932Z,51.179203
2023-01-13T07:00:16.944Z,51.179199
2023-01-13T07:01:17.022Z,51.179199
2023-01-13T07:02:17.007Z,51.179222
2023-01-13T07:03:16.878Z,51.179268
2023-01-13T07:04:16.895Z,51.179222
2023-01-13T07:05:16.912Z,51.179192
2023-01-13T07:06:16.871Z,51.179192
2023-01-13T07:07:16.902Z,51.179203
2023-01-13T07:08:16.847Z,51.179245
2023-01-13T07:09:16.833Z,51.179234
2023-01-13T07:10:16.838Z,51.179234
2023-01-13T07:11:16.829Z,51.179256
2023-01-13T07:12:16.810Z,51.179245
2023-01-13T07:13:16.787Z,51.179234
2023-01-13T07:14:16.790Z,51.179237
2023-01-13T07:15:16.783Z,51.179226
2023-01-13T07:16:16.836Z,51.179222
2023-01-13T07:17:16.781Z,51.179234
2023-01-13T07:18:16.773Z,51.179207
2023-01-13T07:19:16.717Z,51.179253
2023-01-13T07:20:16.710Z,51.179234
2023-01-13T07:21:16.741Z,51.179234
2023-01-13T07:22:16.692Z,51.179253
2023-01-13T07:23:16.721Z,51.179245
2023-01-13T07:24:16.667Z,51.179260
2023-01-13T07:25:16.650Z,51.179245
2023-01-13T07:26:16.666Z,51.179241
2023-01-13T07:27:16.654Z,51.179214
2023-01-13T07:28:16.631Z,51.179192
2023-01-13T07:29:16.619Z,51.179222
2023-01-13T07:30:16.619Z,51.179211
2023-01-13T07:31:16.708Z,51.179192
2023-01-13T07:32:16.597Z,51.179234
2023-01-13T07:33:16.564Z,51.179207
2023-01-13T07:34:16.582Z,51.179207
2023-01-13T07:35:16.572Z,51.179222
2023-01-13T07:36:16.543Z,51.179230
2023-01-13T07:37:16.536Z,51.179256
2023-01-13T07:38:16.558Z,51.179241
2023-01-13T07:39:16.509Z,51.179230
2023-01-13T07:40:16.502Z,51.179207
2023-01-13T07:41:16.503Z,51.179214
2023-01-13T07:42:16.495Z,51.179207
2023-01-13T07:43:16.465Z,51.179230
2023-01-13T07:44:16.467Z,51.179234
2023-01-13T07:45:16.479Z,51.179241
2023-01-13T07:46:16.501Z,51.179329
2023-01-13T07:47:16.459Z,51.179302
2023-01-13T07:48:16.433Z,51.179260
2023-01-13T07:49:16.426Z,51.179245
2023-01-13T07:50:16.430Z,51.179241
2023-01-13T07:51:16.400Z,51.179245
2023-01-13T07:52:16.383Z,51.179142
2023-01-13T07:53:16.369Z,51.179131
2023-01-13T07:54:17.164Z,51.179222
2023-01-13T07:55:16.334Z,51.179249
2023-01-13T07:56:16.325Z,51.179256
2023-01-13T07:57:16.339Z,51.179264
2023-01-13T07:58:16.335Z,51.179256
2023-01-13T07:59:16.296Z,51.179241
2023-01-13T08:00:16.323Z,51.179234
2023-01-13T08:01:16.382Z,51.179222
2023-01-13T08:02:16.530Z,51.179222
2023-01-13T08:03:16.262Z,51.179211
2023-01-13T08:04:16.240Z,51.179207
2023-01-13T08:05:16.278Z,51.179234
2023-01-13T08:06:16.237Z,51.179176
2023-01-13T08:07:16.202Z,51.179134
2023-01-13T08:08:16.260Z,51.179165
2023-01-13T08:09:16.225Z,51.179169
2023-01-13T08:10:16.167Z,51.179188
2023-01-13T08:11:16.218Z,51.179234
2023-01-13T08:12:16.170Z,51.179276
2023-01-13T08:13:16.136Z,51.179264
2023-01-13T08:14:16.137Z,51.179218
2023-01-13T08:15:16.165Z,51.179203
2023-01-13T08:16:16.197Z,51.179199
2023-01-13T08:17:16.099Z,51.179234
2023-01-13T08:18:16.154Z,51.179214
2023-01-13T08:19:16.140Z,51.179249
2023-01-13T08:20:16.085Z,51.179268
2023-01-13T08:21:16.096Z,51.179268
2023-01-13T08:22:16.066Z,51.179237
2023-01-13T08:23:17.035Z,51.179230
2023-01-13T08:24:16.037Z,51.179283
2023-01-13T08:25:16.060Z,51.179298
2023-01-13T08:26:16.033Z,51.179283
2023-01-13T08:27:16.031Z,51.179253
2023-01-13T08:28:16.022Z,51.179203
2023-01-13T08:29:16.015Z,51.179268
2023-01-13T08:30:15.989Z,51.179287
2023-01-13T08:31:16.416Z,51.179211
2023-01-13T08:32:15.959Z,51.179161
2023-01-13T08:33:15.936Z,51.179199
2023-01-13T08:34:16.009Z,51.179234
2023-01-13T08:35:15.951Z,51.179291
2023-01-13T08:36:15.914Z,51.179279
2023-01-13T08:37:47.821Z,51.179268
2023-01-13T08:38:15.936Z,51.179260
2023-01-13T08:39:15.900Z,51.179165
2023-01-13T08:40:15.877Z,51.179195
2023-01-13T08:41:15.909Z,51.179234
2023-01-13T08:42:15.848Z,51.179237
2023-01-13T08:43:15.847Z,51.179214
2023-01-13T08:44:15.859Z,51.179214
2023-01-13T08:45:15.829Z,51.179241
2023-01-13T08:46:15.857Z,51.179222
2023-01-13T08:47:15.812Z,51.179119
2023-01-13T08:48:15.797Z,51.179153
2023-01-13T08:49:15.777Z,51.179184
2023-01-13T08:50:15.793Z,51.179222
2023-01-13T08:51:15.769Z,51.179203
2023-01-13T08:52:15.770Z,51.179226
2023-01-13T08:53:15.736Z,51.179253
2023-01-13T08:54:15.739Z,51.179276
2023-01-13T08:55:15.707Z,51.179230
2023-01-13T08:56:15.725Z,51.179245
2023-01-13T08:57:15.749Z,51.179245
2023-01-13T08:58:16.374Z,51.179253
2023-01-13T08:59:15.717Z,51.179260
2023-01-13T09:00:15.698Z,51.179222
2023-01-13T09:01:15.811Z,51.179241
2023-01-13T09:02:15.886Z,51.179295
2023-01-13T09:03:15.626Z,51.179291
2023-01-13T09:04:15.657Z,51.179237
2023-01-13T09:05:17.670Z,51.179180
2023-01-13T09:06:16.614Z,51.179150
2023-01-13T09:07:15.595Z,51.179161
2023-01-13T09:08:15.587Z,51.179203
2023-01-13T09:09:15.581Z,51.179230
2023-01-13T09:10:15.554Z,51.179230
2023-01-13T09:11:15.553Z,51.179211
2023-01-13T09:12:15.541Z,51.179230
2023-01-13T09:13:15.537Z,51.179222
2023-01-13T09:14:15.503Z,51.179214
2023-01-13T09:15:15.525Z,51.179226
2023-01-13T09:16:15.536Z,51.179192
2023-01-13T09:17:15.501Z,51.179203
2023-01-13T09:18:15.483Z,51.179234
2023-01-13T09:19:15.455Z,51.179226
2023-01-13T09:20:15.480Z,51.179249
2023-01-13T09:21:15.449Z,51.179253
2023-01-13T09:22:15.442Z,51.179230
2023-01-13T09:23:15.408Z,51.179214
2023-01-13T09:24:15.412Z,51.179192
2023-01-13T09:25:15.411Z,51.179214
2023-01-13T09:26:15.402Z,51.179249
2023-01-13T09:27:15.371Z,51.179226
2023-01-13T09:28:15.340Z,51.179188
2023-01-13T09:29:16.363Z,51.179195
2023-01-13T09:30:15.336Z,51.179214
2023-01-13T09:31:15.430Z,51.179195
2023-01-13T09:32:15.363Z,51.179176
2023-01-13T09:33:15.339Z,51.179203
2023-01-13T09:34:15.324Z,51.179230
2023-01-13T09:35:15.295Z,51.179226
2023-01-13T09:36:15.281Z,51.179245
2023-01-13T09:37:15.312Z,51.179237
2023-01-13T09:38:15.278Z,51.179230
2023-01-13T09:39:15.260Z,51.179241
2023-01-13T09:40:15.241Z,51.179253
2023-01-13T09:41:15.212Z,51.179264
2023-01-13T09:42:15.216Z,51.179268
2023-01-13T09:43:15.207Z,51.179241
2023-01-13T09:44:15.202Z,51.179268
2023-01-13T09:45:15.183Z,51.179260
2023-01-13T09:46:15.235Z,51.179291
2023-01-13T09:47:15.178Z,51.179279
2023-01-13T09:48:15.142Z,51.179249
2023-01-13T09:49:15.141Z,51.179241
2023-01-13T09:50:15.146Z,51.179234
2023-01-13T09:51:15.122Z,51.179234
2023-01-13T09:52:15.135Z,51.179214
2023-01-13T09:53:15.094Z,51.179203
2023-01-13T09:54:15.082Z,51.179249
2023-01-13T09:55:15.085Z,51.179241
2023-01-13T09:56:15.070Z,51.179253
2023-01-13T09:57:15.082Z,51.179241
2023-01-13T09:58:15.028Z,51.179245
2023-01-13T09:59:15.027Z,51.179264
2023-01-13T10:00:15.064Z,51.179279
2023-01-13T10:01:15.073Z,51.179249
2023-01-13T10:02:14.992Z,51.179230
2023-01-13T10:03:14.987Z,51.179245
2023-01-13T10:04:15.167Z,51.179241
2023-01-13T10:05:14.966Z,51.179237
2023-01-13T10:06:14.936Z,51.179211
2023-01-13T10:07:14.945Z,51.179214
2023-01-13T10:08:14.923Z,51.179203
2023-01-13T10:09:14.908Z,51.179203
2023-01-13T10:10:14.929Z,51.179237
2023-01-13T10:11:14.911Z,51.179237
2023-01-13T10:12:14.860Z,51.179218
2023-01-13T10:13:14.894Z,51.179214
2023-01-13T10:14:14.890Z,51.179234
2023-01-13T10:15:14.887Z,51.179237
2023-01-13T10:16:14.856Z,51.179211
2023-01-13T10:17:14.853Z,51.179214
2023-01-13T10:18:14.792Z,51.179234
2023-01-13T10:19:14.842Z,51.179256
2023-01-13T10:20:14.806Z,51.179249
2023-01-13T10:21:14.758Z,51.179256
2023-01-13T10:22:14.764Z,51.179241
2023-01-13T10:23:14.746Z,51.179253
2023-01-13T10:24:14.752Z,51.179237
2023-01-13T10:25:14.777Z,51.179230
2023-01-13T10:26:14.792Z,51.179218
2023-01-13T10:27:14.701Z,51.179199
2023-01-13T10:28:14.686Z,51.179199
2023-01-13T10:29:14.682Z,51.179199
2023-01-13T10:30:14.671Z,51.179203
2023-01-13T10:31:14.693Z,51.179211
2023-01-13T10:32:14.710Z,51.179180
2023-01-13T10:33:14.674Z,51.179188
2023-01-13T10:34:14.620Z,51.179188
2023-01-13T10:35:14.632Z,51.179188
2023-01-13T10:36:14.720Z,51.179184
2023-01-13T10:37:14.596Z,51.179165
2023-01-13T10:38:14.566Z,51.179173
2023-01-13T10:39:14.570Z,51.179146
2023-01-13T10:40:14.559Z,51.179150
2023-01-13T10:41:14.540Z,51.179203
2023-01-13T10:42:14.552Z,51.179241
2023-01-13T10:43:14.510Z,51.179256
2023-01-13T10:44:14.510Z,51.179256
2023-01-13T10:45:14.519Z,51.179249
2023-01-13T10:46:14.510Z,51.179237
2023-01-13T10:47:14.455Z,51.179222
2023-01-13T10:48:14.486Z,51.179211
2023-01-13T10:49:14.448Z,51.179226
2023-01-13T10:50:14.437Z,51.179218
2023-01-13T10:51:14.404Z,51.179218
2023-01-13T10:52:14.478Z,51.179226
2023-01-13T10:53:14.386Z,51.179230
2023-01-13T10:54:14.402Z,51.179226
2023-01-13T10:55:14.366Z,51.179192
2023-01-13T10:56:14.361Z,51.179173
2023-01-13T10:57:14.347Z,51.179176
2023-01-13T10:58:14.363Z,51.179214
2023-01-13T10:59:14.342Z,51.179226
2023-01-13T11:00:14.350Z,51.179249
2023-01-13T11:01:14.363Z,51.179245
2023-01-13T11:02:25.312Z,51.179237
2023-01-13T11:03:16.301Z,51.179241
2023-01-13T11:04:14.265Z,51.179195
2023-01-13T11:05:14.337Z,51.179199
2023-01-13T11:06:14.271Z,51.179173
2023-01-13T11:07:14.232Z,51.179214
2023-01-13T11:08:14.226Z,51.179241
2023-01-13T11:09:14.210Z,51.179237
2023-01-13T11:10:14.214Z,51.179199
2023-01-13T11:11:14.208Z,51.179169
2023-01-13T11:12:14.173Z,51.179176
2023-01-13T11:13:14.182Z,51.179176
2023-01-13T11:14:14.164Z,51.179173
2023-01-13T11:15:14.148Z,51.179176
2023-01-13T11:16:14.204Z,51.179199
2023-01-13T11:17:14.198Z,51.179214
2023-01-13T11:18:14.116Z,51.179234
2023-01-13T11:19:14.133Z,51.179253
2023-01-13T11:20:14.118Z,51.179184
2023-01-13T11:21:14.088Z,51.179169
2023-01-13T11:22:14.099Z,51.179195
2023-01-13T11:23:14.078Z,51.179211
2023-01-13T11:24:14.079Z,51.179199